createdAt,value
2022-08-03T00:02:19.365Z,1.65
2022-08-03T00:04:52.715Z,1.80
2022-08-03T00:07:20.386Z,1.70
2022-08-03T00:09:48.193Z,2.03
2022-08-03T00:12:16.406Z,2.00
2022-08-03T00:14:44.254Z,1.60
2022-08-03T00:17:11.866Z,1.45
2022-08-03T00:19:39.483Z,1.48
2022-08-03T00:22:07.352Z,2.05
2022-08-03T00:24:36.417Z,2.00
2022-08-03T00:27:04.216Z,1.70
2022-08-03T00:29:31.744Z,1.85
2022-08-03T00:32:00.117Z,1.55
2022-08-03T00:34:36.206Z,1.80
2022-08-03T00:37:10.916Z,1.50
2022-08-03T00:39:38.540Z,1.52
2022-08-03T00:42:06.979Z,1.58
2022-08-03T00:44:41.026Z,1.88
2022-08-03T00:47:10.440Z,1.70
2022-08-03T00:49:41.498Z,1.70
2022-08-03T00:52:10.681Z,1.70
2022-08-03T00:54:39.070Z,2.00
2022-08-03T00:57:07.887Z,1.85
2022-08-03T00:59:37.020Z,1.80
2022-08-03T01:04:31.964Z,1.80
2022-08-03T01:07:27.994Z,2.00
2022-08-03T01:09:55.803Z,1.75
2022-08-03T01:12:48.803Z,1.73
2022-08-03T01:15:43.545Z,1.75
2022-08-03T01:18:43.424Z,1.67
2022-08-03T01:21:21.705Z,1.70
2022-08-03T01:23:54.156Z,1.90
2022-08-03T01:26:21.834Z,1.50
2022-08-03T01:29:15.934Z,1.70
2022-08-03T01:33:02.686Z,1.75
2022-08-03T01:35:06.686Z,1.70
2022-08-03T01:37:48.958Z,1.60
2022-08-03T01:40:19.532Z,1.77
2022-08-03T01:42:49.595Z,1.85
2022-08-03T01:45:18.802Z,1.42
2022-08-03T01:47:48.506Z,1.60
2022-08-03T01:50:21.111Z,1.33
2022-08-03T01:52:49.313Z,1.38
2022-08-03T01:55:20.386Z,1.45
2022-08-03T01:58:05.936Z,1.17
2022-08-03T02:00:38.747Z,1.55
2022-08-03T02:03:08.629Z,1.50
2022-08-03T02:05:39.120Z,1.40
2022-08-03T02:08:10.675Z,1.23
2022-08-03T02:10:42.338Z,1.60
2022-08-03T02:13:11.117Z,1.50
2022-08-03T02:15:41.400Z,1.23
2022-08-03T02:18:11.617Z,1.30
2022-08-03T02:20:42.024Z,1.20
2022-08-03T02:23:10.447Z,1.30
2022-08-03T02:25:45.483Z,1.20
2022-08-03T02:28:19.489Z,1.48
2022-08-03T02:30:53.923Z,1.50
2022-08-03T02:33:43.341Z,1.40
2022-08-03T02:36:13.470Z,1.20
2022-08-03T02:38:43.862Z,1.27
2022-08-03T02:41:18.251Z,1.42
2022-08-03T02:44:05.367Z,1.40
2022-08-03T02:46:39.114Z,1.50
2022-08-03T02:49:40.899Z,1.48
2022-08-03T02:51:59.079Z,1.48
2022-08-03T02:54:28.273Z,1.80
2022-08-03T02:56:58.723Z,1.67
2022-08-03T02:59:27.924Z,1.45
2022-08-03T03:01:55.820Z,1.40
2022-08-03T03:04:25.728Z,1.33
2022-08-03T03:07:01.810Z,1.50
2022-08-03T03:09:40.462Z,1.60
2022-08-03T03:12:11.473Z,1.50
2022-08-03T03:14:39.927Z,1.60
2022-08-03T03:17:08.909Z,1.80
2022-08-03T03:19:39.860Z,1.60
2022-08-03T03:22:08.668Z,1.45
2022-08-03T03:27:04.469Z,1.60
2022-08-03T03:32:08.332Z,1.73
2022-08-03T03:34:37.328Z,1.80
2022-08-03T03:37:05.987Z,1.70
2022-08-03T03:42:01.421Z,1.80
2022-08-03T03:44:29.761Z,1.63
2022-08-03T03:47:00.261Z,1.58
2022-08-03T03:49:28.051Z,1.77
2022-08-03T03:51:55.910Z,1.33
2022-08-03T03:54:25.486Z,1.50
2022-08-03T03:56:56.958Z,1.60
2022-08-03T03:59:24.821Z,1.55
2022-08-03T04:01:59.142Z,1.60
2022-08-03T04:04:45.082Z,1.75
2022-08-03T04:07:31.489Z,1.48
2022-08-03T04:10:20.557Z,1.77
2022-08-03T04:12:51.250Z,1.50
2022-08-03T04:15:24.162Z,1.60
2022-08-03T04:17:56.054Z,1.55
2022-08-03T04:20:32.673Z,1.40
2022-08-03T04:23:01.812Z,1.63
2022-08-03T04:25:32.971Z,1.67
2022-08-03T04:28:19.701Z,1.70
2022-08-03T04:30:52.550Z,1.40
2022-08-03T04:33:21.450Z,1.60
2022-08-03T04:36:01.741Z,1.67
2022-08-03T04:38:36.836Z,1.75
2022-08-03T04:41:06.086Z,1.50
2022-08-03T04:43:34.304Z,1.60
2022-08-03T04:46:02.951Z,1.88
2022-08-03T04:51:00.876Z,1.80
2022-08-03T04:53:28.786Z,1.73
2022-08-03T04:55:56.270Z,2.10
2022-08-03T04:58:29.068Z,2.03
2022-08-03T05:00:56.552Z,2.00
2022-08-03T05:03:25.207Z,2.15
2022-08-03T05:08:46.047Z,2.50
2022-08-03T05:11:16.500Z,2.20
2022-08-03T05:16:14.794Z,2.00
2022-08-03T05:18:43.369Z,2.17
2022-08-03T05:21:12.513Z,2.17
2022-08-03T05:23:41.472Z,2.38
2022-08-03T05:28:36.813Z,2.20
2022-08-03T05:31:04.400Z,2.30
2022-08-03T05:33:31.881Z,2.13
2022-08-03T05:36:03.563Z,2.30
2022-08-03T05:38:35.004Z,2.50
2022-08-03T05:41:21.021Z,2.40
2022-08-03T05:43:55.137Z,2.88
2022-08-03T05:46:23.381Z,2.88
2022-08-03T05:48:51.286Z,3.10
2022-08-03T05:51:18.857Z,2.63
2022-08-03T05:53:46.428Z,3.53
2022-08-03T05:56:16.285Z,3.58
2022-08-03T05:58:46.108Z,3.40
2022-08-03T06:01:14.869Z,4.15
2022-08-03T06:06:11.697Z,3.22
2022-08-03T06:08:41.140Z,3.20
2022-08-03T06:11:09.018Z,3.40
2022-08-03T06:13:37.223Z,3.30
2022-08-03T06:16:05.491Z,3.10
2022-08-03T06:18:33.358Z,3.10
2022-08-03T06:21:14.390Z,2.92
2022-08-03T06:23:52.595Z,2.92
2022-08-03T06:26:21.811Z,3.10
2022-08-03T06:28:52.598Z,3.55
2022-08-03T06:31:33.348Z,3.60
2022-08-03T06:34:32.396Z,2.85
2022-08-03T06:36:52.400Z,3.20
2022-08-03T06:39:23.567Z,3.42
2022-08-03T06:41:53.548Z,3.15
2022-08-03T06:44:21.316Z,3.33
2022-08-03T06:46:49.030Z,3.47
2022-08-03T06:49:17.171Z,4.70
2022-08-03T06:52:04.908Z,3.72
2022-08-03T06:54:33.207Z,3.70
2022-08-03T06:57:01.337Z,3.65
2022-08-03T07:00:07.919Z,3.53
2022-08-03T07:02:19.868Z,3.42
2022-08-03T07:04:48.687Z,3.30
2022-08-03T07:07:17.492Z,3.05
2022-08-03T07:09:56.753Z,3.10
2022-08-03T07:12:27.536Z,3.08
2022-08-03T07:15:00.272Z,2.78
2022-08-03T07:17:32.398Z,3.40
2022-08-03T07:20:03.233Z,2.33
2022-08-03T07:22:30.989Z,2.50
2022-08-03T07:24:59.290Z,2.63
2022-08-03T07:27:28.705Z,2.95
2022-08-03T07:29:58.808Z,2.67
2022-08-03T07:32:27.147Z,2.45
2022-08-03T07:34:58.439Z,2.90
2022-08-03T07:37:28.932Z,2.45
2022-08-03T07:39:57.227Z,2.08
2022-08-03T07:42:24.866Z,2.27
2022-08-03T07:44:52.574Z,2.03
2022-08-03T07:47:23.448Z,2.05
2022-08-03T07:49:51.948Z,1.85
2022-08-03T07:52:38.376Z,1.63
2022-08-03T07:55:07.070Z,1.88
2022-08-03T07:57:35.392Z,1.70
2022-08-03T08:00:06.950Z,2.15
2022-08-03T08:02:35.083Z,1.55
2022-08-03T08:05:05.747Z,1.50
2022-08-03T08:07:34.338Z,1.58
2022-08-03T08:10:02.765Z,1.40
2022-08-03T08:12:30.378Z,1.70
2022-08-03T08:14:57.945Z,1.60
2022-08-03T08:17:25.472Z,1.35
2022-08-03T08:19:57.946Z,1.50
2022-08-03T08:22:29.881Z,1.63
2022-08-03T08:24:59.570Z,1.70
2022-08-03T08:28:30.124Z,1.50
2022-08-03T08:30:19.637Z,1.40
2022-08-03T08:32:48.822Z,1.63
2022-08-03T08:35:17.901Z,1.55
2022-08-03T08:37:50.893Z,1.95
2022-08-03T08:40:22.997Z,1.50
2022-08-03T08:42:58.466Z,1.70
2022-08-03T08:45:27.765Z,1.55
2022-08-03T08:48:01.639Z,1.52
2022-08-03T08:50:31.971Z,1.80
2022-08-03T08:55:30.653Z,1.40
2022-08-03T08:58:20.917Z,1.60
2022-08-03T09:00:49.488Z,1.58
2022-08-03T09:03:22.671Z,15.27
2022-08-03T09:05:59.724Z,10.57
2022-08-03T09:08:28.546Z,2.33
2022-08-03T09:13:24.295Z,1.50
2022-08-03T09:16:24.632Z,1.30
2022-08-03T09:18:54.313Z,1.38
2022-08-03T09:21:34.781Z,1.50
2022-08-03T09:24:08.423Z,1.35
2022-08-03T09:26:52.118Z,2.22
2022-08-03T09:29:22.894Z,1.45
2022-08-03T09:32:00.829Z,1.50
2022-08-03T09:34:28.835Z,1.40
2022-08-03T09:36:58.394Z,1.33
2022-08-03T09:39:41.391Z,1.58
2022-08-03T09:42:11.186Z,1.17
2022-08-03T09:44:47.763Z,1.70
2022-08-03T09:47:28.389Z,1.52
2022-08-03T09:50:07.271Z,1.52
2022-08-03T09:52:51.929Z,1.90
2022-08-03T09:56:04.996Z,1.42
2022-08-03T09:58:11.663Z,1.88
2022-08-03T10:01:01.923Z,1.50
2022-08-03T10:03:36.600Z,1.48
2022-08-03T10:06:28.869Z,1.30
2022-08-03T10:09:15.015Z,1.85
2022-08-03T10:11:44.328Z,1.63
2022-08-03T10:14:19.627Z,1.40
2022-08-03T10:16:48.418Z,1.48
2022-08-03T10:19:16.530Z,1.50
2022-08-03T10:21:51.470Z,1.33
2022-08-03T10:24:26.182Z,1.77
2022-08-03T10:27:01.535Z,1.48
2022-08-03T10:29:32.351Z,1.73
2022-08-03T10:32:04.428Z,1.70
2022-08-03T10:34:40.321Z,1.60
2022-08-03T10:37:15.430Z,1.40
2022-08-03T10:39:54.236Z,1.50
2022-08-03T10:42:24.748Z,1.20
2022-08-03T10:45:13.165Z,1.75
2022-08-03T10:47:41.265Z,1.30
2022-08-03T10:50:10.109Z,1.40
2022-08-03T10:53:06.690Z,1.60
2022-08-03T10:55:53.871Z,1.65
2022-08-03T10:58:37.073Z,1.83
2022-08-03T11:01:06.231Z,1.40
2022-08-03T11:03:48.920Z,1.48
2022-08-03T11:06:27.237Z,1.88
2022-08-03T11:09:11.218Z,1.48
2022-08-03T11:11:43.714Z,1.45
2022-08-03T11:14:14.721Z,1.60
2022-08-03T11:17:06.172Z,1.50
2022-08-03T11:19:56.575Z,1.20
2022-08-03T11:22:46.098Z,1.88
2022-08-03T11:25:54.156Z,1.40
2022-08-03T11:28:25.296Z,1.10
2022-08-03T11:30:53.014Z,1.52
2022-08-03T11:33:31.160Z,1.10
2022-08-03T11:36:01.399Z,1.38
2022-08-03T11:38:28.955Z,1.30
2022-08-03T11:40:56.547Z,1.40
2022-08-03T11:43:31.256Z,1.10
2022-08-03T11:46:07.872Z,1.38
2022-08-03T11:48:47.458Z,1.48
2022-08-03T11:51:26.170Z,1.33
2022-08-03T11:56:21.297Z,1.25
2022-08-03T11:59:19.366Z,1.38
2022-08-03T12:01:46.104Z,1.23
2022-08-03T12:04:13.606Z,0.98
2022-08-03T12:06:56.005Z,1.02
2022-08-03T12:09:23.780Z,1.08
2022-08-03T12:11:59.581Z,0.85
2022-08-03T12:14:49.089Z,1.52
2022-08-03T12:17:17.783Z,1.35
2022-08-03T12:19:46.395Z,1.08
2022-08-03T12:22:14.647Z,1.30
2022-08-03T12:24:43.270Z,1.10
2022-08-03T12:27:10.982Z,1.27
2022-08-03T12:32:07.269Z,1.20
2022-08-03T12:34:50.746Z,1.00
2022-08-03T12:37:23.544Z,0.88
2022-08-03T12:40:10.206Z,0.70
2022-08-03T12:42:39.718Z,0.77
2022-08-03T12:45:24.319Z,1.10
2022-08-03T12:48:13.201Z,0.90
2022-08-03T12:50:41.368Z,1.08
2022-08-03T12:53:10.357Z,0.90
2022-08-03T12:55:57.311Z,1.13
2022-08-03T12:58:34.905Z,0.90
2022-08-03T13:01:10.085Z,0.98
2022-08-03T13:03:49.789Z,1.05
2022-08-03T13:06:23.739Z,0.70
2022-08-03T13:09:03.784Z,0.70
2022-08-03T13:11:57.982Z,0.77
2022-08-03T13:14:20.210Z,0.65
2022-08-03T13:16:50.808Z,0.80
2022-08-03T13:19:25.530Z,0.75
2022-08-03T13:22:04.313Z,0.70
2022-08-03T13:24:33.268Z,0.90
2022-08-03T13:28:02.255Z,0.98
2022-08-03T13:29:59.170Z,0.60
2022-08-03T13:32:26.847Z,0.60
2022-08-03T13:34:54.629Z,0.80
2022-08-03T13:37:22.571Z,0.80
2022-08-03T13:39:59.246Z,0.90
2022-08-03T13:42:30.511Z,0.85
2022-08-03T13:44:59.370Z,1.00
2022-08-03T13:47:27.448Z,0.60
2022-08-03T13:50:01.485Z,0.90
2022-08-03T13:52:31.648Z,0.65
2022-08-03T13:55:00.204Z,0.65
2022-08-03T13:58:02.973Z,1.13
2022-08-03T14:03:03.804Z,1.00
2022-08-03T14:05:33.912Z,0.82
2022-08-03T14:08:04.367Z,0.80
2022-08-03T14:10:34.651Z,0.90
2022-08-03T14:13:03.168Z,0.80
2022-08-03T14:15:31.464Z,0.65
2022-08-03T14:17:59.280Z,0.82
2022-08-03T14:20:38.071Z,0.80
2022-08-03T14:25:50.218Z,0.90
2022-08-03T14:28:21.344Z,0.80
2022-08-03T14:30:49.158Z,0.90
2022-08-03T14:33:16.954Z,0.90
2022-08-03T14:35:44.847Z,0.90
2022-08-03T14:38:12.491Z,1.10
2022-08-03T14:40:43.494Z,2.25
2022-08-03T14:43:11.387Z,1.75
2022-08-03T14:45:39.861Z,1.70
2022-08-03T14:50:33.884Z,0.95
2022-08-03T14:50:56.827Z,1.10
2022-08-03T14:53:24.609Z,0.90
2022-08-03T14:55:53.478Z,0.73
2022-08-03T15:00:51.375Z,1.10
2022-08-03T15:03:23.412Z,0.90
2022-08-03T15:05:56.750Z,0.90
2022-08-03T15:08:25.868Z,0.90
2022-08-03T15:10:54.854Z,0.70
2022-08-03T15:13:22.844Z,0.93
2022-08-03T15:15:51.877Z,0.70
2022-08-03T15:18:20.359Z,0.80
2022-08-03T15:20:50.534Z,0.60
2022-08-03T15:23:18.680Z,0.80
2022-08-03T15:26:28.842Z,0.77
2022-08-03T15:28:34.509Z,0.75
2022-08-03T15:31:06.501Z,0.90
2022-08-03T15:33:35.317Z,0.73
2022-08-03T15:36:04.871Z,0.70
2022-08-03T15:38:32.413Z,0.80
2022-08-03T15:41:00.415Z,1.00
2022-08-03T15:43:28.055Z,1.10
2022-08-03T15:46:26.546Z,0.80
2022-08-03T15:48:43.503Z,0.80
2022-08-03T15:51:11.578Z,1.10
2022-08-03T15:53:39.693Z,1.08
2022-08-03T15:56:12.318Z,1.35
2022-08-03T15:59:04.450Z,0.85
2022-08-03T16:01:30.974Z,1.13
2022-08-03T16:03:58.703Z,1.05
2022-08-03T16:06:29.748Z,1.45
2022-08-03T16:09:23.000Z,1.00
2022-08-03T16:11:53.731Z,1.45
2022-08-03T16:14:34.756Z,1.10
2022-08-03T16:17:05.695Z,1.48
2022-08-03T16:19:34.023Z,0.98
2022-08-03T16:22:03.378Z,1.20
2022-08-03T16:24:31.334Z,1.17
2022-08-03T16:26:59.473Z,1.20
2022-08-03T16:29:29.545Z,1.13
2022-08-03T16:31:57.063Z,1.15
2022-08-03T16:34:24.850Z,1.20
2022-08-03T16:36:52.640Z,1.13
2022-08-03T16:39:20.649Z,1.80
2022-08-03T16:41:54.564Z,1.10
2022-08-03T16:44:30.688Z,1.40
2022-08-03T16:47:00.028Z,1.20
2022-08-03T16:49:55.543Z,1.23
2022-08-03T16:52:16.574Z,1.42
2022-08-03T16:54:50.581Z,1.40
2022-08-03T16:57:58.834Z,1.00
2022-08-03T17:00:12.238Z,1.20
2022-08-03T17:03:04.146Z,1.10
2022-08-03T17:05:32.669Z,1.67
2022-08-03T17:08:15.880Z,1.40
2022-08-03T17:13:21.490Z,1.20
2022-08-03T17:15:57.636Z,1.38
2022-08-03T17:18:36.111Z,1.38
2022-08-03T17:21:05.928Z,1.30
2022-08-03T17:23:48.607Z,1.20
2022-08-03T17:26:21.847Z,1.50
2022-08-03T17:28:57.499Z,1.33
2022-08-03T17:31:31.497Z,1.23
2022-08-03T17:34:04.367Z,1.50
2022-08-03T17:37:02.188Z,1.33
2022-08-03T17:39:41.880Z,1.67
2022-08-03T17:44:58.846Z,1.40
2022-08-03T17:47:42.799Z,1.65
2022-08-03T17:50:24.275Z,1.45
2022-08-03T17:56:40.860Z,1.40
2022-08-03T17:59:50.623Z,1.73
2022-08-03T18:03:16.186Z,1.63
2022-08-03T18:06:10.670Z,1.35
2022-08-03T18:08:38.930Z,1.33
2022-08-03T18:11:14.394Z,1.30
2022-08-03T18:13:53.313Z,1.42
2022-08-03T18:16:34.492Z,1.45
2022-08-03T18:19:09.241Z,1.60
2022-08-03T18:22:02.843Z,1.38
2022-08-03T18:26:55.760Z,1.35
2022-08-03T18:29:27.576Z,1.70
2022-08-03T18:32:02.749Z,1.48
2022-08-03T18:34:34.614Z,1.25
2022-08-03T18:37:07.794Z,1.42
2022-08-03T18:39:50.055Z,1.60
2022-08-03T18:42:20.714Z,1.40
2022-08-03T18:44:57.580Z,1.52
2022-08-03T18:47:50.927Z,1.63
2022-08-03T18:50:36.044Z,1.55
2022-08-03T18:54:03.026Z,1.45
2022-08-03T18:56:26.791Z,1.38
2022-08-03T18:59:02.549Z,1.35
2022-08-03T19:04:35.136Z,1.60
2022-08-03T19:07:07.020Z,1.38
2022-08-03T19:09:52.374Z,1.50
2022-08-03T19:12:33.936Z,1.35
2022-08-03T19:15:12.369Z,1.70
2022-08-03T19:17:43.626Z,1.42
2022-08-03T19:20:25.201Z,1.30
2022-08-03T19:22:55.598Z,1.70
2022-08-03T19:25:34.481Z,1.60
2022-08-03T19:28:08.841Z,1.52
2022-08-03T19:30:40.251Z,1.50
2022-08-03T19:33:14.358Z,1.42
2022-08-03T19:38:32.469Z,1.50
2022-08-03T19:41:03.675Z,1.50
2022-08-03T19:43:53.492Z,1.50
2022-08-03T19:46:30.593Z,1.40
2022-08-03T19:49:15.022Z,1.52
2022-08-03T19:52:01.960Z,1.80
2022-08-03T19:54:45.498Z,1.98
2022-08-03T19:57:24.042Z,2.08
2022-08-03T19:59:53.867Z,2.20
2022-08-03T20:02:26.151Z,2.40
2022-08-03T20:05:00.054Z,2.15
2022-08-03T20:07:30.862Z,2.60
2022-08-03T20:10:05.983Z,2.00
2022-08-03T20:12:39.040Z,1.60
2022-08-03T20:15:09.232Z,1.77
2022-08-03T20:17:55.115Z,2.00
2022-08-03T20:22:58.040Z,2.10
2022-08-03T20:25:38.381Z,2.20
2022-08-03T20:28:14.914Z,1.90
2022-08-03T20:30:47.200Z,1.63
2022-08-03T20:33:18.443Z,1.58
2022-08-03T20:35:49.525Z,1.83
2022-08-03T20:38:19.228Z,1.75
2022-08-03T20:40:48.435Z,1.88
2022-08-03T20:43:17.027Z,1.40
2022-08-03T20:46:00.945Z,1.80
2022-08-03T20:48:37.397Z,1.50
2022-08-03T20:51:06.081Z,2.17
2022-08-03T20:53:59.698Z,1.70
2022-08-03T20:56:35.813Z,1.55
2022-08-03T20:59:07.278Z,1.65
2022-08-03T21:01:44.352Z,1.52
2022-08-03T21:04:13.577Z,1.48
2022-08-03T21:06:56.069Z,1.60
2022-08-03T21:09:33.471Z,1.77
2022-08-03T21:12:12.083Z,1.90
2022-08-03T21:13:02.506Z,1.48
2022-08-03T21:13:04.598Z,1.25
2022-08-03T21:13:09.323Z,1.50
2022-08-03T21:14:51.890Z,1.40
2022-08-03T21:17:39.160Z,1.42
2022-08-03T21:20:10.492Z,1.63
2022-08-03T21:22:42.452Z,1.60
2022-08-03T21:25:10.829Z,1.50
2022-08-03T21:27:38.619Z,1.65
2022-08-03T21:30:10.748Z,1.30
2022-08-03T21:32:42.030Z,1.48
2022-08-03T21:35:10.775Z,1.48
2022-08-03T21:40:14.091Z,1.40
2022-08-03T21:42:45.351Z,1.38
2022-08-03T21:45:17.375Z,1.85
2022-08-03T21:47:45.892Z,1.33
2022-08-03T21:50:13.981Z,1.42
2022-08-03T21:52:45.375Z,1.70
2022-08-03T21:55:18.630Z,1.33
2022-08-03T21:57:53.593Z,1.60
2022-08-03T22:00:23.368Z,1.48
2022-08-03T22:02:55.360Z,1.60
2022-08-03T22:05:28.964Z,1.73
2022-08-03T22:08:13.412Z,1.60
2022-08-03T22:10:44.001Z,1.30
2022-08-03T22:13:14.009Z,1.70
2022-08-03T22:15:41.872Z,1.40
2022-08-03T22:18:09.704Z,1.50
2022-08-03T22:20:37.489Z,1.63
2022-08-03T22:23:06.981Z,1.47
2022-08-03T22:25:39.376Z,1.30
2022-08-03T22:28:10.107Z,1.80
2022-08-03T22:30:39.159Z,1.20
2022-08-03T22:33:11.395Z,1.33
2022-08-03T22:35:47.506Z,1.30
2022-08-03T22:38:18.921Z,1.75
2022-08-03T22:40:51.059Z,1.58
2022-08-03T22:43:27.440Z,1.75
2022-08-03T22:46:09.888Z,1.50
2022-08-03T22:48:41.836Z,1.50
2022-08-03T22:51:10.105Z,1.50
2022-08-03T22:53:38.815Z,1.52
2022-08-03T22:56:06.944Z,1.80
2022-08-03T22:58:34.605Z,1.70
2022-08-03T23:01:06.591Z,1.63
2022-08-03T23:04:00.662Z,1.60
2022-08-03T23:06:27.229Z,1.30
2022-08-03T23:08:55.571Z,1.40
2022-08-03T23:11:24.383Z,1.88
2022-08-03T23:13:54.342Z,1.52
2022-08-03T23:16:29.247Z,1.63
2022-08-03T23:19:00.242Z,1.48
2022-08-03T23:22:00.820Z,1.58
2022-08-03T23:24:33.975Z,1.50
2022-08-03T23:27:04.037Z,1.90
2022-08-03T23:29:35.094Z,1.75
2022-08-03T23:32:04.374Z,1.40
2022-08-03T23:34:51.917Z,1.70
2022-08-03T23:37:20.618Z,1.80
2022-08-03T23:39:49.701Z,1.50
2022-08-03T23:42:19.484Z,1.80
2022-08-03T23:44:53.021Z,1.60
2022-08-03T23:47:20.818Z,1.33
2022-08-03T23:49:49.860Z,2.00
2022-08-03T23:55:30.271Z,1.70
2022-08-03T23:58:19.598Z,1.30
